createdAt,value
2022-12-03T00:01:35.264Z,100.00
2022-12-03T00:04:03.624Z,100.00
2022-12-03T00:06:34.828Z,100.00
2022-12-03T00:09:03.103Z,100.00
2022-12-03T00:11:31.346Z,100.00
2022-12-03T00:13:59.524Z,100.00
2022-12-03T00:16:27.773Z,100.00
2022-12-03T00:18:55.903Z,100.00
2022-12-03T00:21:24.890Z,100.00
2022-12-03T00:23:54.680Z,100.00
2022-12-03T00:26:22.908Z,100.00
2022-12-03T00:28:50.943Z,100.00
2022-12-03T00:31:21.539Z,100.00
2022-12-03T00:33:49.747Z,100.00
2022-12-03T00:36:17.748Z,100.00
2022-12-03T00:38:46.013Z,100.00
2022-12-03T00:41:15.495Z,100.00
2022-12-03T00:43:43.476Z,100.00
2022-12-03T00:46:11.507Z,100.00
2022-12-03T00:48:39.574Z,100.00
2022-12-03T00:51:07.898Z,100.00
2022-12-03T00:53:36.149Z,100.00
2022-12-03T00:56:04.196Z,100.00
2022-12-03T00:58:33.682Z,100.00
2022-12-03T01:01:01.710Z,100.00
2022-12-03T01:03:30.323Z,100.00
2022-12-03T01:05:58.410Z,100.00
2022-12-03T01:08:26.409Z,100.00
2022-12-03T01:10:54.495Z,100.00
2022-12-03T01:13:22.504Z,100.00
2022-12-03T01:15:51.999Z,100.00
2022-12-03T01:18:20.082Z,100.00
2022-12-03T01:20:48.090Z,100.00
2022-12-03T01:23:16.107Z,100.00
2022-12-03T01:25:44.199Z,100.00
2022-12-03T01:28:12.292Z,100.00
2022-12-03T01:30:54.135Z,100.00
2022-12-03T01:33:23.591Z,100.00
2022-12-03T01:35:51.608Z,100.00
2022-12-03T01:38:19.610Z,100.00
2022-12-03T01:40:49.055Z,100.00
2022-12-03T01:43:17.116Z,100.00
2022-12-03T01:45:45.215Z,100.00
2022-12-03T01:48:16.753Z,100.00
2022-12-03T01:50:46.698Z,100.00
2022-12-03T01:53:19.053Z,100.00
2022-12-03T01:55:49.079Z,100.00
2022-12-03T01:58:18.460Z,100.00
2022-12-03T02:00:46.528Z,100.00
2022-12-03T02:03:19.914Z,100.00
2022-12-03T02:05:49.309Z,100.00
2022-12-03T02:08:32.211Z,100.00
2022-12-03T02:11:03.932Z,100.00
2022-12-03T02:13:32.544Z,100.00
2022-12-03T02:16:00.665Z,100.00
2022-12-03T02:18:28.819Z,100.00
2022-12-03T02:21:05.033Z,100.00
2022-12-03T02:23:38.674Z,100.00
2022-12-03T02:26:08.333Z,100.00
2022-12-03T02:28:36.353Z,100.00
2022-12-03T02:31:05.257Z,100.00
2022-12-03T02:33:33.573Z,100.00
2022-12-03T02:36:03.944Z,100.00
2022-12-03T02:38:34.349Z,100.00
2022-12-03T02:41:06.181Z,100.00
2022-12-03T02:43:34.643Z,100.00
2022-12-03T02:46:04.956Z,100.00
2022-12-03T02:48:35.810Z,100.00
2022-12-03T02:51:06.562Z,100.00
2022-12-03T02:53:42.358Z,100.00
2022-12-03T02:56:13.401Z,100.00
2022-12-03T02:58:44.061Z,100.00
2022-12-03T03:01:12.767Z,100.00
2022-12-03T03:03:41.134Z,100.00
2022-12-03T03:06:10.657Z,100.00
2022-12-03T03:08:40.485Z,100.00
2022-12-03T03:11:09.008Z,100.00
2022-12-03T03:13:37.743Z,100.00
2022-12-03T03:16:09.087Z,100.00
2022-12-03T03:18:37.827Z,100.00
2022-12-03T03:21:06.345Z,100.00
2022-12-03T03:23:34.490Z,100.00
2022-12-03T03:26:05.951Z,100.00
2022-12-03T03:28:36.709Z,100.00
2022-12-03T03:31:08.690Z,100.00
2022-12-03T03:33:38.053Z,100.00
2022-12-03T03:36:07.960Z,100.00
2022-12-03T03:38:36.955Z,100.00
2022-12-03T03:41:07.086Z,100.00
2022-12-03T03:43:36.864Z,100.00
2022-12-03T03:46:05.993Z,100.00
2022-12-03T03:48:36.636Z,100.00
2022-12-03T03:51:09.585Z,100.00
2022-12-03T03:53:39.849Z,100.00
2022-12-03T03:56:08.774Z,100.00
2022-12-03T03:58:37.480Z,100.00
2022-12-03T04:01:05.705Z,100.00
2022-12-03T04:03:35.569Z,100.00
2022-12-03T04:06:04.000Z,100.00
2022-12-03T04:08:32.326Z,100.00
2022-12-03T04:11:17.840Z,100.00
2022-12-03T04:13:46.660Z,100.00
2022-12-03T04:16:14.800Z,100.00
2022-12-03T04:18:44.289Z,100.00
2022-12-03T04:21:31.213Z,100.00
2022-12-03T04:23:59.509Z,100.00
2022-12-03T04:26:45.520Z,100.00
2022-12-03T04:29:13.819Z,100.00
2022-12-03T04:31:59.566Z,100.00
2022-12-03T04:34:46.763Z,100.00
2022-12-03T04:37:14.786Z,100.00
2022-12-03T04:39:42.835Z,100.00
2022-12-03T04:42:10.925Z,100.00
2022-12-03T04:44:39.108Z,100.00
2022-12-03T04:47:10.486Z,100.00
2022-12-03T04:49:41.985Z,100.00
2022-12-03T04:52:10.578Z,100.00
2022-12-03T04:54:39.220Z,100.00
2022-12-03T04:57:08.203Z,100.00
2022-12-03T04:59:37.103Z,100.00
2022-12-03T05:02:06.164Z,100.00
2022-12-03T05:04:34.605Z,100.00
2022-12-03T05:07:04.609Z,100.00
2022-12-03T05:09:32.588Z,100.00
2022-12-03T05:12:00.571Z,100.00
2022-12-03T05:14:28.777Z,100.00
2022-12-03T05:17:12.108Z,100.00
2022-12-03T05:19:57.467Z,100.00
2022-12-03T05:22:26.885Z,100.00
2022-12-03T05:24:55.335Z,100.00
2022-12-03T05:27:24.408Z,100.00
2022-12-03T05:29:53.020Z,100.00
2022-12-03T05:32:21.544Z,100.00
2022-12-03T05:34:49.612Z,100.00
2022-12-03T05:37:17.688Z,100.00
2022-12-03T05:39:47.120Z,100.00
2022-12-03T05:42:32.676Z,100.00
2022-12-03T05:45:00.650Z,100.00
2022-12-03T05:47:28.683Z,100.00
2022-12-03T05:49:56.800Z,100.00
2022-12-03T05:52:24.794Z,100.00
2022-12-03T05:54:54.348Z,100.00
2022-12-03T05:57:22.491Z,100.00
2022-12-03T05:59:50.479Z,100.00
2022-12-03T06:02:18.692Z,100.00
2022-12-03T06:04:46.925Z,100.00
2022-12-03T06:07:14.956Z,100.00
2022-12-03T06:09:42.946Z,100.00
2022-12-03T06:12:12.618Z,100.00
2022-12-03T06:14:41.069Z,100.00
2022-12-03T06:17:09.201Z,100.00
2022-12-03T06:19:37.224Z,100.00
2022-12-03T06:22:05.254Z,100.00
2022-12-03T06:24:33.234Z,100.00
2022-12-03T06:27:01.256Z,100.00
2022-12-03T06:29:30.637Z,100.00
2022-12-03T06:31:58.710Z,100.00
2022-12-03T06:34:26.766Z,100.00
2022-12-03T06:36:54.838Z,100.00
2022-12-03T06:39:23.079Z,100.00
2022-12-03T06:41:51.113Z,100.00
2022-12-03T06:44:19.223Z,100.00
2022-12-03T06:46:49.361Z,100.00
2022-12-03T06:49:17.374Z,100.00
2022-12-03T06:51:45.367Z,100.00
2022-12-03T06:54:13.316Z,100.00
2022-12-03T06:56:45.179Z,100.00
2022-12-03T06:59:13.691Z,100.00
2022-12-03T07:01:41.962Z,100.00
2022-12-03T07:04:11.403Z,100.00
2022-12-03T07:06:39.502Z,100.00
2022-12-03T07:09:07.630Z,100.00
2022-12-03T07:11:40.420Z,100.00
2022-12-03T07:14:13.052Z,100.00
2022-12-03T07:16:43.475Z,100.00
2022-12-03T07:19:13.576Z,100.00
2022-12-03T07:21:41.626Z,100.00
2022-12-03T07:24:10.275Z,100.00
2022-12-03T07:26:38.347Z,100.00
2022-12-03T07:29:06.423Z,100.00
2022-12-03T07:31:34.606Z,100.00
2022-12-03T07:34:02.864Z,100.00
2022-12-03T07:36:32.326Z,100.00
2022-12-03T07:39:00.319Z,100.00
2022-12-03T07:41:28.333Z,100.00
2022-12-03T07:43:56.384Z,100.00
2022-12-03T07:46:24.503Z,100.00
2022-12-03T07:48:52.659Z,100.00
2022-12-03T07:51:20.697Z,100.00
2022-12-03T07:53:50.084Z,100.00
2022-12-03T07:56:18.177Z,100.00
2022-12-03T07:58:46.155Z,100.00
2022-12-03T08:01:14.259Z,100.00
2022-12-03T08:03:42.987Z,100.00
2022-12-03T08:06:11.255Z,100.00
2022-12-03T08:08:39.327Z,100.00
2022-12-03T08:11:13.994Z,100.00
2022-12-03T08:13:42.371Z,100.00
2022-12-03T08:16:17.174Z,100.00
2022-12-03T08:18:46.100Z,100.00
2022-12-03T08:21:15.746Z,100.00
2022-12-03T08:23:44.164Z,100.00
2022-12-03T08:26:22.902Z,100.00
2022-12-03T08:28:51.204Z,100.00
2022-12-03T08:31:27.937Z,100.00
2022-12-03T08:34:08.026Z,100.00
2022-12-03T08:36:36.528Z,100.00
2022-12-03T08:39:24.217Z,100.00
2022-12-03T08:42:14.782Z,100.00
2022-12-03T08:44:42.826Z,100.00
2022-12-03T08:47:15.344Z,100.00
2022-12-03T08:49:47.066Z,100.00
2022-12-03T08:52:18.838Z,100.00
2022-12-03T08:54:52.963Z,100.00
2022-12-03T08:57:28.359Z,100.00
2022-12-03T09:00:01.212Z,100.00
2022-12-03T09:02:33.045Z,100.00
2022-12-03T09:05:14.485Z,100.00
2022-12-03T09:07:42.608Z,100.00
2022-12-03T09:10:11.043Z,100.00
2022-12-03T09:12:40.470Z,100.00
2022-12-03T09:15:09.413Z,100.00
2022-12-03T09:17:38.255Z,100.00
2022-12-03T09:20:07.571Z,100.00
2022-12-03T09:22:35.899Z,100.00
2022-12-03T09:25:03.936Z,100.00
2022-12-03T09:27:31.917Z,100.00
2022-12-03T09:30:01.520Z,100.00
2022-12-03T09:32:29.704Z,100.00
2022-12-03T09:34:57.809Z,100.00
2022-12-03T09:37:25.807Z,100.00
2022-12-03T09:39:53.801Z,100.00
2022-12-03T09:42:22.200Z,100.00
2022-12-03T09:44:50.266Z,100.00
2022-12-03T09:47:20.229Z,100.00
2022-12-03T09:49:48.345Z,100.00
2022-12-03T09:52:27.411Z,100.00
2022-12-03T09:54:56.244Z,100.00
2022-12-03T09:57:24.582Z,100.00
2022-12-03T09:59:52.892Z,100.00
2022-12-03T10:02:25.766Z,100.00
2022-12-03T10:04:54.770Z,100.00
2022-12-03T10:07:23.623Z,100.00
2022-12-03T10:09:52.319Z,100.00
2022-12-03T10:12:24.683Z,100.00
2022-12-03T10:14:53.845Z,100.00
2022-12-03T10:17:23.572Z,100.00
2022-12-03T10:19:51.938Z,100.00
2022-12-03T10:22:20.107Z,100.00
2022-12-03T10:25:05.132Z,100.00
2022-12-03T10:27:33.202Z,100.00
2022-12-03T10:30:03.130Z,100.00
2022-12-03T10:32:43.960Z,100.00
2022-12-03T10:35:15.324Z,100.00
2022-12-03T10:37:59.341Z,100.00
2022-12-03T10:40:29.124Z,100.00
2022-12-03T10:43:16.148Z,100.00
2022-12-03T10:45:45.285Z,100.00
2022-12-03T10:48:16.511Z,100.00
2022-12-03T10:50:53.019Z,100.00
2022-12-03T10:53:22.952Z,100.00
2022-12-03T10:55:52.907Z,100.00
2022-12-03T10:58:23.935Z,100.00
2022-12-03T11:00:53.940Z,100.00
2022-12-03T11:03:25.160Z,100.00
2022-12-03T11:05:54.580Z,100.00
2022-12-03T11:08:25.219Z,100.00
2022-12-03T11:11:01.751Z,100.00
2022-12-03T11:13:44.918Z,100.00
2022-12-03T11:16:13.891Z,100.00
2022-12-03T11:19:03.500Z,100.00
2022-12-03T11:21:31.992Z,100.00
2022-12-03T11:24:22.127Z,99.74
2022-12-03T11:27:20.714Z,98.46
2022-12-03T11:30:00.496Z,97.40
2022-12-03T11:33:02.207Z,96.44
2022-12-03T11:35:54.303Z,97.33
2022-12-03T11:38:53.017Z,97.70
2022-12-03T11:41:24.332Z,96.86
2022-12-03T11:44:27.248Z,94.14
2022-12-03T11:46:55.889Z,93.83
2022-12-03T11:49:39.444Z,93.58
2022-12-03T11:52:30.544Z,93.80
2022-12-03T11:55:06.718Z,92.69
2022-12-03T11:57:37.617Z,93.00
2022-12-03T12:00:19.805Z,90.81
2022-12-03T12:02:49.238Z,91.81
2022-12-03T12:05:30.253Z,92.49
2022-12-03T12:08:00.765Z,92.43
2022-12-03T12:10:46.593Z,92.53
2022-12-03T12:13:55.585Z,92.03
2022-12-03T12:16:55.161Z,91.57
2022-12-03T12:19:37.692Z,91.84
2022-12-03T12:22:35.704Z,91.98
2022-12-03T12:25:06.911Z,91.84
2022-12-03T12:27:39.380Z,92.03
2022-12-03T12:30:10.840Z,91.68
2022-12-03T12:32:46.343Z,91.69
2022-12-03T12:35:17.672Z,90.07
2022-12-03T12:37:56.617Z,88.56
2022-12-03T12:40:30.573Z,87.18
2022-12-03T12:43:02.183Z,87.51
2022-12-03T12:45:37.542Z,83.16
2022-12-03T12:48:20.918Z,79.50
2022-12-03T12:50:51.816Z,77.24
2022-12-03T12:53:24.427Z,75.31
2022-12-03T12:55:57.660Z,71.42
2022-12-03T12:58:26.775Z,70.44
2022-12-03T13:00:56.234Z,70.40
2022-12-03T13:03:27.050Z,71.76
2022-12-03T13:05:57.682Z,72.61
2022-12-03T13:08:28.917Z,71.85
2022-12-03T13:10:59.710Z,72.14
2022-12-03T13:13:40.225Z,72.87
2022-12-03T13:16:17.044Z,73.50
2022-12-03T13:18:48.467Z,73.49
2022-12-03T13:21:40.485Z,72.72
2022-12-03T13:24:30.099Z,74.11
2022-12-03T13:27:10.252Z,74.82
2022-12-03T13:29:39.088Z,76.32
2022-12-03T13:32:20.117Z,78.09
2022-12-03T13:34:50.565Z,79.55
2022-12-03T13:37:22.269Z,80.90
2022-12-03T13:39:52.323Z,83.33
2022-12-03T13:42:42.791Z,85.53
2022-12-03T13:45:31.625Z,88.82
2022-12-03T13:48:01.891Z,91.21
2022-12-03T13:50:35.471Z,93.42
2022-12-03T13:53:10.965Z,95.13
2022-12-03T14:08:39.790Z,100.00
2022-12-03T14:11:08.101Z,100.00
2022-12-03T14:13:36.264Z,100.00
2022-12-03T14:16:04.437Z,100.00
2022-12-03T14:18:32.545Z,100.00
2022-12-03T14:21:00.523Z,100.00
2022-12-03T14:23:28.505Z,100.00
2022-12-03T14:25:57.872Z,100.00
2022-12-03T14:28:25.907Z,100.00
2022-12-03T14:30:53.894Z,100.00
2022-12-03T14:33:21.923Z,100.00
2022-12-03T14:35:53.412Z,100.00
2022-12-03T14:38:21.571Z,100.00
2022-12-03T14:40:49.548Z,100.00
2022-12-03T14:43:18.899Z,100.00
2022-12-03T14:45:46.909Z,100.00
2022-12-03T14:48:15.022Z,100.00
2022-12-03T14:50:43.058Z,100.00
2022-12-03T14:53:11.153Z,100.00
2022-12-03T14:55:39.232Z,100.00
2022-12-03T14:58:07.241Z,100.00
2022-12-03T15:00:36.611Z,100.00
2022-12-03T15:03:04.635Z,100.00
2022-12-03T15:05:32.631Z,100.00
2022-12-03T15:08:00.715Z,100.00
2022-12-03T15:10:28.699Z,100.00
2022-12-03T15:12:56.660Z,100.00
2022-12-03T15:15:24.680Z,100.00
2022-12-03T15:17:54.063Z,100.00
2022-12-03T15:20:22.066Z,100.00
2022-12-03T15:22:50.006Z,100.00
2022-12-03T15:25:24.248Z,100.00
2022-12-03T15:27:52.456Z,100.00
2022-12-03T15:30:20.733Z,100.00
2022-12-03T15:32:48.747Z,100.00
2022-12-03T15:35:18.805Z,100.00
2022-12-03T15:37:51.693Z,100.00
2022-12-03T15:40:19.608Z,100.00
2022-12-03T15:42:47.534Z,100.00
2022-12-03T15:45:15.759Z,100.00
2022-12-03T15:47:43.760Z,100.00
2022-12-03T15:50:12.857Z,100.00
2022-12-03T15:52:42.203Z,100.00
2022-12-03T15:55:10.859Z,100.00
2022-12-03T15:57:38.997Z,100.00
2022-12-03T16:00:08.379Z,100.00
2022-12-03T16:02:36.476Z,100.00
2022-12-03T16:05:06.541Z,100.00
2022-12-03T16:07:34.518Z,100.00
2022-12-03T16:10:04.675Z,100.00
2022-12-03T16:12:35.656Z,100.00
2022-12-03T16:15:03.593Z,100.00
2022-12-03T16:17:31.595Z,100.00
2022-12-03T16:19:59.596Z,100.00
2022-12-03T16:22:27.635Z,100.00
2022-12-03T16:24:55.546Z,100.00
2022-12-03T16:27:25.983Z,100.00
2022-12-03T16:29:56.140Z,100.00
2022-12-03T16:32:24.374Z,100.00
2022-12-03T16:34:52.339Z,100.00
2022-12-03T16:37:20.277Z,100.00
2022-12-03T16:39:48.920Z,100.00
2022-12-03T16:42:17.636Z,100.00
2022-12-03T16:45:15.737Z,100.00
2022-12-03T16:47:43.812Z,100.00
2022-12-03T16:50:18.711Z,100.00
2022-12-03T16:52:49.995Z,100.00
2022-12-03T16:55:18.150Z,100.00
2022-12-03T16:57:46.144Z,100.00
2022-12-03T17:00:17.321Z,100.00
2022-12-03T17:02:45.410Z,100.00
2022-12-03T17:05:13.553Z,100.00
2022-12-03T17:07:41.629Z,100.00
2022-12-03T17:10:10.570Z,100.00
2022-12-03T17:13:07.710Z,100.00
2022-12-03T17:15:28.078Z,100.00
2022-12-03T17:17:56.435Z,100.00
2022-12-03T17:20:24.363Z,100.00
2022-12-03T17:22:52.419Z,100.00
2022-12-03T17:25:20.494Z,100.00
2022-12-03T17:27:48.554Z,100.00
2022-12-03T17:30:16.926Z,100.00
2022-12-03T17:32:46.530Z,100.00
2022-12-03T17:35:14.561Z,100.00
2022-12-03T17:37:42.466Z,100.00
2022-12-03T17:40:14.435Z,100.00
2022-12-03T17:42:42.602Z,100.00
2022-12-03T17:45:11.547Z,100.00
2022-12-03T17:47:39.748Z,100.00
2022-12-03T17:50:10.332Z,100.00
2022-12-03T17:52:38.343Z,100.00
2022-12-03T17:55:14.233Z,100.00
2022-12-03T17:57:45.973Z,100.00
2022-12-03T18:00:14.675Z,100.00
2022-12-03T18:02:42.708Z,100.00
2022-12-03T18:05:13.124Z,100.00
2022-12-03T18:07:41.261Z,100.00
2022-12-03T18:10:09.736Z,100.00
2022-12-03T18:12:37.773Z,100.00
2022-12-03T18:15:06.548Z,100.00
2022-12-03T18:17:34.627Z,100.00
2022-12-03T18:20:02.729Z,100.00
2022-12-03T18:22:32.471Z,100.00
2022-12-03T18:25:00.654Z,100.00
2022-12-03T18:27:28.846Z,100.00
2022-12-03T18:29:57.494Z,100.00
2022-12-03T18:32:29.285Z,100.00
2022-12-03T18:34:58.898Z,100.00
2022-12-03T18:37:29.905Z,100.00
2022-12-03T18:40:00.174Z,100.00
2022-12-03T18:42:28.422Z,100.00
2022-12-03T18:44:57.778Z,100.00
2022-12-03T18:47:28.534Z,100.00
2022-12-03T18:49:57.792Z,100.00
2022-12-03T18:52:26.070Z,100.00
2022-12-03T18:54:55.294Z,100.00
2022-12-03T18:57:24.801Z,100.00
2022-12-03T18:59:53.305Z,100.00
2022-12-03T19:05:11.342Z,100.00
2022-12-03T19:07:39.586Z,100.00
2022-12-03T19:10:09.020Z,100.00
2022-12-03T19:12:39.055Z,100.00
2022-12-03T19:15:08.351Z,100.00
2022-12-03T19:17:36.366Z,100.00
2022-12-03T19:20:05.308Z,100.00
2022-12-03T19:22:33.351Z,100.00
2022-12-03T19:25:01.292Z,100.00
2022-12-03T19:27:32.668Z,100.00
2022-12-03T19:30:01.972Z,100.00
2022-12-03T19:32:30.048Z,100.00
2022-12-03T19:34:58.080Z,100.00
2022-12-03T19:37:26.032Z,100.00
2022-12-03T19:39:56.857Z,100.00
2022-12-03T19:42:25.353Z,100.00
2022-12-03T19:44:53.313Z,100.00
2022-12-03T19:47:24.694Z,100.00
2022-12-03T19:49:54.223Z,100.00
2022-12-03T19:52:22.332Z,100.00
2022-12-03T19:54:50.335Z,100.00
2022-12-03T19:57:23.206Z,100.00
2022-12-03T19:59:52.095Z,100.00
2022-12-03T20:02:20.560Z,100.00
2022-12-03T20:04:50.077Z,100.00
2022-12-03T20:07:18.138Z,100.00
2022-12-03T20:09:46.163Z,100.00
2022-12-03T20:12:14.146Z,100.00
2022-12-03T20:14:42.173Z,100.00
2022-12-03T20:17:10.204Z,100.00
2022-12-03T20:19:38.273Z,100.00
2022-12-03T20:22:07.603Z,100.00
2022-12-03T20:24:35.544Z,100.00
2022-12-03T20:27:03.645Z,100.00
2022-12-03T20:29:31.722Z,100.00
2022-12-03T20:32:00.559Z,100.00
2022-12-03T20:34:28.696Z,100.00
2022-12-03T20:36:56.645Z,100.00
2022-12-03T20:39:25.971Z,100.00
2022-12-03T20:41:53.936Z,100.00
2022-12-03T20:44:21.855Z,100.00
2022-12-03T20:46:49.830Z,100.00
2022-12-03T20:49:17.868Z,100.00
2022-12-03T20:51:45.836Z,100.00
2022-12-03T20:54:13.893Z,100.00
2022-12-03T20:56:43.210Z,100.00
2022-12-03T20:59:13.381Z,100.00
2022-12-03T21:01:42.060Z,100.00
2022-12-03T21:04:11.257Z,100.00
2022-12-03T21:06:42.034Z,100.00
2022-12-03T21:09:11.489Z,100.00
2022-12-03T21:11:42.354Z,100.00
2022-12-03T21:14:12.466Z,100.00
2022-12-03T21:19:30.171Z,100.00
2022-12-03T21:21:58.302Z,100.00
2022-12-03T21:24:26.266Z,100.00
2022-12-03T21:26:54.529Z,100.00
2022-12-03T21:29:24.098Z,100.00
2022-12-03T21:31:52.277Z,100.00
2022-12-03T21:34:20.412Z,100.00
2022-12-03T21:36:48.440Z,100.00
2022-12-03T21:39:16.531Z,100.00
2022-12-03T21:42:36.203Z,100.00
2022-12-03T21:44:35.066Z,100.00
2022-12-03T21:47:12.049Z,100.00
2022-12-03T21:49:42.451Z,100.00
2022-12-03T21:52:10.947Z,100.00
2022-12-03T21:54:38.933Z,100.00
2022-12-03T21:57:06.952Z,100.00
2022-12-03T21:59:36.365Z,100.00
2022-12-03T22:02:04.639Z,100.00
2022-12-03T22:04:32.766Z,100.00
2022-12-03T22:07:00.728Z,100.00
2022-12-03T22:09:28.943Z,100.00
2022-12-03T22:11:59.287Z,100.00
2022-12-03T22:14:27.381Z,100.00
2022-12-03T22:16:56.952Z,100.00
2022-12-03T22:19:24.977Z,100.00
2022-12-03T22:21:53.446Z,100.00
2022-12-03T22:24:21.510Z,100.00
2022-12-03T22:26:49.442Z,100.00
2022-12-03T22:29:17.351Z,100.00
2022-12-03T22:31:45.381Z,100.00
2022-12-03T22:34:14.797Z,100.00
2022-12-03T22:36:42.736Z,100.00
2022-12-03T22:39:10.679Z,100.00
2022-12-03T22:41:38.667Z,100.00
2022-12-03T22:44:07.090Z,100.00
2022-12-03T22:46:35.132Z,100.00
2022-12-03T22:49:07.097Z,100.00
2022-12-03T22:51:37.032Z,100.00
2022-12-03T22:54:05.743Z,100.00
2022-12-03T22:56:33.963Z,100.00
2022-12-03T22:59:01.939Z,100.00
2022-12-03T23:01:31.416Z,100.00
2022-12-03T23:03:59.985Z,100.00
2022-12-03T23:06:29.222Z,100.00
2022-12-03T23:08:59.897Z,100.00
2022-12-03T23:11:28.663Z,100.00
2022-12-03T23:13:56.607Z,100.00
2022-12-03T23:16:27.250Z,100.00
2022-12-03T23:18:55.634Z,100.00
2022-12-03T23:21:29.782Z,100.00
2022-12-03T23:24:00.159Z,100.00
2022-12-03T23:26:29.241Z,100.00
2022-12-03T23:28:57.679Z,100.00
2022-12-03T23:31:27.328Z,100.00
2022-12-03T23:33:56.254Z,100.00
2022-12-03T23:36:25.546Z,100.00
2022-12-03T23:38:53.589Z,100.00
2022-12-03T23:41:26.648Z,100.00
2022-12-03T23:43:54.950Z,100.00
2022-12-03T23:46:25.408Z,100.00
2022-12-03T23:48:53.937Z,100.00
2022-12-03T23:51:23.816Z,100.00
2022-12-03T23:53:52.866Z,100.00
2022-12-03T23:56:23.761Z,100.00
2022-12-03T23:58:52.462Z,100.00
